Time;durP1;ratioP1;P1;durP2;ratioP2;P2;SDS_P1;SDS_P2;PMS_P1;PMS_P2;Temp;Humidity;BMP_temperature;BMP_pressure;BME280_temperature;BME280_humidity;BME280_pressure;Samples;Min_cycle;Max_cycle;Signal;HPM_P1;HPM_P2
2022/08/28 00:01:25;;;;;;;27.57;23.97;;;17.60;99.90;;;;;;5063998;28;20861;-77
2022/08/28 00:03:52;;;;;;;28.03;23.90;;;17.60;99.90;;;;;;5056194;28;20269;-76
2022/08/28 00:06:18;;;;;;;23.70;21.40;;;17.60;99.90;;;;;;5064140;28;20198;-76
2022/08/28 00:08:45;;;;;;;25.03;22.73;;;17.60;99.90;;;;;;5063736;28;20199;-77
2022/08/28 00:11:12;;;;;;;24.27;21.83;;;17.70;99.90;;;;;;5061969;28;20221;-76
2022/08/28 00:13:41;;;;;;;24.40;21.37;;;17.60;99.90;;;;;;5045756;28;20274;-77
2022/08/28 00:16:08;;;;;;;25.27;22.57;;;17.70;99.90;;;;;;5044442;28;20626;-77
2022/08/28 00:18:35;;;;;;;23.20;20.77;;;17.70;99.90;;;;;;5064176;28;20202;-76
2022/08/28 00:21:02;;;;;;;22.60;20.40;;;17.70;99.90;;;;;;5045192;28;20206;-76
2022/08/28 00:23:31;;;;;;;24.20;21.57;;;17.80;99.90;;;;;;5042510;28;20708;-77
2022/08/28 00:25:58;;;;;;;24.10;21.53;;;17.80;99.90;;;;;;5044223;28;20202;-76
2022/08/28 00:28:24;;;;;;;25.43;22.73;;;17.80;99.90;;;;;;5063821;28;20231;-76
2022/08/28 00:30:56;;;;;;;25.97;23.33;;;17.80;99.90;;;;;;5063467;28;20190;-77
2022/08/28 00:33:26;;;;;;;31.03;26.90;;;17.80;99.90;;;;;;5057410;28;20219;-77
2022/08/28 00:35:54;;;;;;;26.30;23.60;;;17.80;99.90;;;;;;5062738;28;20282;-76
2022/08/28 00:38:22;;;;;;;27.13;24.27;;;17.90;99.90;;;;;;5064651;28;20195;-76
2022/08/28 00:40:52;;;;;;;25.13;21.87;;;18.00;99.90;;;;;;5045162;28;20203;-76
2022/08/28 00:43:32;;;;;;;21.97;19.33;;;18.00;99.90;;;;;;5059728;28;20219;-76
2022/08/28 00:46:01;;;;;;;23.33;20.40;;;18.00;99.90;;;;;;5048412;28;20673;-75
2022/08/28 00:48:28;;;;;;;30.10;26.90;;;18.00;99.90;;;;;;5029675;28;20208;-77
2022/08/28 00:53:39;;;;;;;22.57;19.63;;;18.00;99.90;;;;;;5066597;28;20222;-77
2022/08/28 00:56:10;;;;;;;24.47;21.33;;;18.00;99.90;;;;;;5042750;28;20245;-76
2022/08/28 00:58:37;;;;;;;28.03;24.33;;;18.00;99.90;;;;;;5066500;28;20249;-77
2022/08/28 01:01:06;;;;;;;26.70;22.27;;;18.00;99.90;;;;;;5063391;28;20734;-76
2022/08/28 01:03:33;;;;;;;24.80;21.57;;;18.10;99.90;;;;;;5047438;28;20228;-76
2022/08/28 01:06:01;;;;;;;24.50;21.40;;;18.10;99.90;;;;;;5043189;28;20208;-76
2022/08/28 01:08:29;;;;;;;26.63;23.73;;;18.10;99.90;;;;;;5054701;28;20191;-77
2022/08/28 01:10:59;;;;;;;25.73;21.97;;;18.10;99.90;;;;;;5044964;28;20234;-76
2022/08/28 01:13:26;;;;;;;26.43;22.13;;;18.10;99.90;;;;;;5047406;28;20219;-77
2022/08/28 01:15:54;;;;;;;24.87;21.33;;;18.10;99.90;;;;;;5052020;28;20207;-76
2022/08/28 01:18:23;;;;;;;23.77;21.30;;;18.10;99.90;;;;;;5058963;28;20200;-76
2022/08/28 01:20:58;;;;;;;24.00;20.20;;;18.00;99.90;;;;;;5052485;28;20253;-76
2022/08/28 01:23:40;;;;;;;21.90;19.50;;;18.10;99.90;;;;;;5048498;28;20239;-76
2022/08/28 01:26:06;;;;;;;20.87;18.70;;;18.10;99.90;;;;;;5071161;28;20199;-77
2022/08/28 01:28:33;;;;;;;23.63;20.47;;;18.00;99.90;;;;;;5048344;28;20263;-77
2022/08/28 01:31:00;;;;;;;24.03;21.53;;;18.10;99.90;;;;;;5065419;28;20241;-77
2022/08/28 01:33:27;;;;;;;25.90;22.83;;;18.00;99.90;;;;;;5066752;28;20224;-77
2022/08/28 01:35:54;;;;;;;24.03;21.47;;;18.00;99.90;;;;;;5064388;28;20219;-77
2022/08/28 01:38:20;;;;;;;21.30;19.10;;;18.00;99.90;;;;;;5068647;28;20759;-77
2022/08/28 01:40:52;;;;;;;25.17;21.63;;;18.00;99.90;;;;;;5063327;28;20193;-77
2022/08/28 01:43:21;;;;;;;30.03;26.13;;;18.00;99.90;;;;;;5069019;28;20219;-76
2022/08/28 01:45:52;;;;;;;31.27;25.50;;;17.90;99.90;;;;;;5063205;28;20242;-77
2022/08/28 01:48:21;;;;;;;27.30;24.27;;;17.90;99.90;;;;;;5066347;28;20668;-77
2022/08/28 01:50:49;;;;;;;26.23;22.53;;;17.90;99.90;;;;;;5046334;28;20675;-76
2022/08/28 01:53:18;;;;;;;23.60;21.10;;;17.90;99.90;;;;;;5065824;28;20747;-76
2022/08/28 01:55:46;;;;;;;26.17;23.03;;;17.90;99.90;;;;;;5064868;28;20195;-76
2022/08/28 01:58:14;;;;;;;28.87;25.97;;;17.90;99.90;;;;;;5066155;28;20246;-77
2022/08/28 02:00:42;;;;;;;29.83;24.60;;;17.90;99.90;;;;;;5064410;28;20192;-76
2022/08/28 02:03:09;;;;;;;31.00;25.07;;;17.90;99.90;;;;;;5065647;28;20215;-76
2022/08/28 02:05:36;;;;;;;24.43;21.50;;;17.90;99.90;;;;;;5066440;28;20203;-76
2022/08/28 02:08:05;;;;;;;23.77;21.20;;;17.90;99.90;;;;;;5065032;28;20229;-77
2022/08/28 02:10:34;;;;;;;21.43;18.73;;;17.90;99.90;;;;;;5047028;28;20698;-77
2022/08/28 02:13:01;;;;;;;21.80;19.50;;;17.90;99.90;;;;;;5046333;28;20228;-76
2022/08/28 02:15:31;;;;;;;22.77;20.23;;;17.90;99.90;;;;;;5058362;28;20610;-77
2022/08/28 02:17:58;;;;;;;22.00;19.70;;;18.00;99.90;;;;;;5045731;28;20264;-77
2022/08/28 02:20:26;;;;;;;25.43;21.63;;;18.00;99.90;;;;;;5058864;28;20194;-77
2022/08/28 02:22:53;;;;;;;22.80;19.70;;;18.00;99.90;;;;;;5042401;28;20223;-77
2022/08/28 02:25:21;;;;;;;29.70;26.77;;;18.00;99.90;;;;;;5048858;28;20765;-76
2022/08/28 02:27:48;;;;;;;31.77;28.60;;;18.00;99.90;;;;;;5058893;28;20199;-77
2022/08/28 02:30:16;;;;;;;28.03;25.23;;;18.00;99.90;;;;;;5044022;28;20238;-76
2022/08/28 02:32:45;;;;;;;28.47;25.67;;;18.00;99.90;;;;;;5057950;28;20207;-77
2022/08/28 02:35:16;;;;;;;30.70;27.53;;;18.10;99.90;;;;;;5054016;28;20188;-77
2022/08/28 02:37:44;;;;;;;29.70;26.77;;;18.10;99.90;;;;;;5044248;28;20199;-77
2022/08/28 02:40:12;;;;;;;27.53;25.00;;;18.10;99.90;;;;;;5064869;28;20188;-78
2022/08/28 02:42:40;;;;;;;29.47;26.47;;;18.10;99.90;;;;;;5061672;28;20250;-77
2022/08/28 02:45:10;;;;;;;31.50;28.30;;;18.10;99.90;;;;;;5050168;28;20227;-77
2022/08/28 02:47:37;;;;;;;31.03;27.77;;;18.10;99.90;;;;;;5058090;28;20200;-77
2022/08/28 02:50:07;;;;;;;33.57;30.03;;;18.10;99.90;;;;;;5064421;28;20274;-77
2022/08/28 02:52:35;;;;;;;30.90;27.73;;;18.10;99.90;;;;;;5060239;28;20638;-77
2022/08/28 02:55:02;;;;;;;30.13;27.30;;;18.10;99.90;;;;;;5063056;28;20203;-76
2022/08/28 02:57:29;;;;;;;32.67;29.27;;;18.10;99.90;;;;;;5061554;28;20199;-77
2022/08/28 02:59:57;;;;;;;35.17;31.60;;;18.10;99.90;;;;;;5037091;28;20235;-77
2022/08/28 03:02:24;;;;;;;34.47;31.10;;;18.10;99.90;;;;;;5040160;28;20219;-77
2022/08/28 03:04:51;;;;;;;31.43;28.33;;;18.10;99.90;;;;;;5064800;28;20242;-77
2022/08/28 03:07:21;;;;;;;32.57;29.33;;;18.10;99.90;;;;;;5059907;28;20244;-77
2022/08/28 03:09:48;;;;;;;28.87;26.07;;;18.10;99.90;;;;;;5035776;28;20736;-80
2022/08/28 03:12:15;;;;;;;29.47;26.53;;;18.00;99.90;;;;;;5058957;28;20219;-79
2022/08/28 03:14:43;;;;;;;29.50;26.83;;;18.00;99.90;;;;;;5040754;28;20221;-76
2022/08/28 03:17:09;;;;;;;29.20;26.40;;;18.00;99.90;;;;;;5051310;28;20183;-79
2022/08/28 03:19:36;;;;;;;31.40;28.40;;;18.00;99.90;;;;;;5036273;28;20665;-79
2022/08/28 03:22:03;;;;;;;29.17;26.47;;;17.90;99.90;;;;;;5030639;28;20236;-78
2022/08/28 03:24:30;;;;;;;29.17;26.30;;;17.90;99.90;;;;;;5028596;28;20725;-78
2022/08/28 03:27:00;;;;;;;30.70;27.90;;;17.90;99.90;;;;;;5042040;28;20287;-78
2022/08/28 03:29:27;;;;;;;29.57;26.77;;;18.00;99.90;;;;;;5027675;28;20210;-78
2022/08/28 03:31:54;;;;;;;24.53;22.47;;;18.00;99.90;;;;;;5047659;28;20200;-78
2022/08/28 03:34:21;;;;;;;26.60;24.30;;;18.00;99.90;;;;;;5047277;28;20205;-77
2022/08/28 03:36:47;;;;;;;27.93;25.33;;;18.00;99.90;;;;;;5045304;28;20192;-78
2022/08/28 03:39:14;;;;;;;29.63;26.83;;;18.00;99.90;;;;;;5054123;28;20313;-78
2022/08/28 03:41:42;;;;;;;28.33;25.77;;;18.00;99.90;;;;;;5032238;28;20195;-77
2022/08/28 03:44:09;;;;;;;30.13;27.27;;;18.00;99.90;;;;;;5043220;28;20229;-78
2022/08/28 03:46:36;;;;;;;28.67;25.97;;;18.00;99.90;;;;;;5058975;28;20194;-78
2022/08/28 03:49:04;;;;;;;28.23;25.73;;;18.00;99.90;;;;;;5037142;28;20656;-77
2022/08/28 03:51:34;;;;;;;27.73;25.13;;;18.00;99.90;;;;;;5059385;28;20230;-79
2022/08/28 03:54:02;;;;;;;31.00;27.97;;;17.90;99.90;;;;;;5042831;28;20230;-79
2022/08/28 03:56:31;;;;;;;31.60;28.70;;;17.90;99.90;;;;;;5050530;28;20196;-78
2022/08/28 03:59:01;;;;;;;28.50;25.90;;;17.90;99.90;;;;;;5036481;28;20196;-77
2022/08/28 04:01:28;;;;;;;27.27;24.87;;;18.00;99.90;;;;;;5030887;28;20200;-77
2022/08/28 04:03:55;;;;;;;22.67;19.20;;;18.00;99.90;;;;;;5030443;28;20227;-78
2022/08/28 04:06:23;;;;;;;21.17;19.07;;;18.00;99.90;;;;;;5050518;28;20293;-80
2022/08/28 04:08:50;;;;;;;23.90;21.30;;;18.00;99.90;;;;;;5044894;28;20250;-78
2022/08/28 04:11:17;;;;;;;23.87;20.90;;;18.00;99.90;;;;;;5050632;28;20295;-79
2022/08/28 04:13:44;;;;;;;25.00;22.30;;;18.00;99.90;;;;;;5069704;28;20301;-82
2022/08/28 04:16:15;;;;;;;22.10;19.83;;;18.00;99.90;;;;;;5057416;28;20199;-79
2022/08/28 04:18:43;;;;;;;24.33;21.33;;;18.00;99.90;;;;;;5050900;28;20256;-78
2022/08/28 04:21:12;;;;;;;22.60;20.30;;;18.00;99.90;;;;;;5042743;28;20196;-79
2022/08/28 04:23:41;;;;;;;27.97;24.97;;;18.00;99.90;;;;;;5046664;28;20649;-81
2022/08/28 04:26:09;;;;;;;27.23;23.40;;;18.00;99.90;;;;;;5073355;28;20611;-81
2022/08/28 04:28:36;;;;;;;28.50;24.50;;;18.00;99.90;;;;;;5049702;28;20222;-80
2022/08/28 04:31:03;;;;;;;24.93;22.27;;;18.00;99.90;;;;;;5067302;28;20259;-79
2022/08/28 04:33:31;;;;;;;20.43;18.23;;;18.00;99.90;;;;;;5043370;28;20214;-77
2022/08/28 04:36:02;;;;;;;23.03;20.67;;;18.00;99.90;;;;;;5061452;28;20670;-76
2022/08/28 04:38:29;;;;;;;30.43;27.20;;;18.00;99.90;;;;;;5032421;28;20198;-76
2022/08/28 04:40:55;;;;;;;27.10;23.27;;;18.00;99.90;;;;;;5057293;28;20228;-76
2022/08/28 04:43:22;;;;;;;25.07;21.53;;;18.00;99.90;;;;;;5060130;28;20214;-76
2022/08/28 04:45:49;;;;;;;35.03;31.47;;;18.00;99.90;;;;;;5043090;28;20291;-76
2022/08/28 04:48:16;;;;;;;23.60;21.00;;;18.00;99.90;;;;;;5041776;28;20201;-76
2022/08/28 04:50:45;;;;;;;28.00;23.07;;;18.00;99.90;;;;;;5059250;28;20603;-76
2022/08/28 04:53:13;;;;;;;33.10;29.70;;;17.90;99.90;;;;;;5051511;28;20333;-76
2022/08/28 04:55:41;;;;;;;28.77;24.13;;;17.90;99.90;;;;;;5063629;28;20249;-76
2022/08/28 04:58:08;;;;;;;34.70;27.43;;;17.90;99.90;;;;;;5041877;28;20221;-76
2022/08/28 05:00:37;;;;;;;28.93;25.03;;;17.90;99.90;;;;;;5044951;28;20208;-76
2022/08/28 05:03:04;;;;;;;30.63;27.33;;;18.00;99.90;;;;;;5046986;28;20227;-76
2022/08/28 05:05:31;;;;;;;26.63;23.73;;;17.90;99.90;;;;;;5064438;28;20203;-77
2022/08/28 05:07:59;;;;;;;27.10;22.83;;;18.00;99.90;;;;;;5048434;28;20206;-77
2022/08/28 05:10:26;;;;;;;25.40;22.53;;;18.00;99.90;;;;;;5063701;28;20199;-79
2022/08/28 05:12:53;;;;;;;31.53;28.23;;;18.00;99.90;;;;;;5042698;28;20651;-77
2022/08/28 05:15:20;;;;;;;23.77;21.17;;;18.00;99.90;;;;;;5062881;28;20192;-78
2022/08/28 05:17:47;;;;;;;26.43;22.40;;;18.00;99.90;;;;;;5041723;28;20653;-77
2022/08/28 05:20:14;;;;;;;33.97;30.37;;;18.00;99.90;;;;;;5065342;28;20187;-79
2022/08/28 05:22:41;;;;;;;30.67;27.47;;;18.10;99.90;;;;;;5063812;28;20595;-78
2022/08/28 05:25:10;;;;;;;26.97;23.90;;;18.10;99.90;;;;;;5063251;28;20220;-76
2022/08/28 05:27:39;;;;;;;31.83;28.77;;;18.10;99.90;;;;;;5033223;28;20261;-77
2022/08/28 05:30:07;;;;;;;33.17;29.93;;;18.10;99.90;;;;;;5065775;28;20278;-78
2022/08/28 05:32:34;;;;;;;34.73;31.13;;;18.10;99.90;;;;;;5066610;28;20214;-77
2022/08/28 05:35:00;;;;;;;33.43;30.23;;;18.10;99.90;;;;;;5064225;28;20282;-77
2022/08/28 05:37:27;;;;;;;31.93;28.83;;;18.10;99.90;;;;;;5041439;28;20664;-77
2022/08/28 05:39:54;;;;;;;31.17;28.27;;;18.10;99.90;;;;;;5060775;28;20202;-77
2022/08/28 05:42:23;;;;;;;31.20;28.07;;;18.10;99.90;;;;;;5041481;28;20314;-77
2022/08/28 05:44:49;;;;;;;33.03;29.57;;;18.10;99.90;;;;;;5047278;28;20726;-77
2022/08/28 05:47:17;;;;;;;37.20;33.17;;;18.10;99.90;;;;;;5066712;28;20196;-77
2022/08/28 05:49:44;;;;;;;31.90;28.60;;;18.10;99.90;;;;;;5048403;28;20199;-77
2022/08/28 05:52:10;;;;;;;30.20;27.10;;;18.20;99.90;;;;;;5060048;28;20245;-77
2022/08/28 05:54:37;;;;;;;30.37;27.50;;;18.20;99.90;;;;;;5067389;28;20199;-77
2022/08/28 05:57:04;;;;;;;28.43;25.87;;;18.20;99.90;;;;;;5063456;28;20203;-77
2022/08/28 05:59:32;;;;;;;31.93;28.73;;;18.30;99.90;;;;;;5067824;28;20198;-77
2022/08/28 06:01:59;;;;;;;26.90;24.00;;;18.30;99.90;;;;;;5045762;28;20195;-77
2022/08/28 06:04:27;;;;;;;24.07;21.27;;;18.40;99.90;;;;;;5040525;28;20215;-77
2022/08/28 06:06:54;;;;;;;26.00;22.63;;;18.40;99.90;;;;;;5064575;28;20677;-77
2022/08/28 06:09:23;;;;;;;26.17;23.37;;;18.50;99.90;;;;;;5062707;28;20664;-78
2022/08/28 06:11:50;;;;;;;25.77;22.83;;;18.60;99.90;;;;;;5069336;28;20199;-77
2022/08/28 06:14:19;;;;;;;24.80;22.10;;;18.70;99.90;;;;;;5042119;28;20196;-77
2022/08/28 06:16:51;;;;;;;29.33;26.53;;;18.80;99.90;;;;;;5035695;28;20689;-78
2022/08/28 06:19:19;;;;;;;23.47;21.07;;;18.80;99.90;;;;;;5044519;28;20261;-77
2022/08/28 06:21:47;;;;;;;30.33;27.40;;;18.80;99.90;;;;;;5062106;28;20203;-78
2022/08/28 06:24:14;;;;;;;25.13;22.43;;;18.80;99.90;;;;;;5055121;28;20300;-78
2022/08/28 06:26:40;;;;;;;23.90;21.50;;;18.80;99.90;;;;;;5063652;28;20195;-77
2022/08/28 06:29:09;;;;;;;27.73;25.03;;;18.80;99.90;;;;;;5061070;28;20192;-77
2022/08/28 06:31:37;;;;;;;32.23;28.80;;;18.80;99.90;;;;;;5066290;28;20209;-77
2022/08/28 06:34:06;;;;;;;32.63;29.37;;;18.80;99.90;;;;;;5058728;28;20274;-78
2022/08/28 06:36:37;;;;;;;29.27;26.47;;;18.70;99.90;;;;;;5062237;28;20204;-79
2022/08/28 06:39:05;;;;;;;29.60;26.77;;;18.80;99.90;;;;;;5043228;28;20259;-79
2022/08/28 06:41:34;;;;;;;27.40;24.93;;;18.80;99.90;;;;;;5063417;28;20208;-77
2022/08/28 06:44:03;;;;;;;27.23;24.73;;;18.90;99.90;;;;;;5044614;28;20754;-77
2022/08/28 06:46:32;;;;;;;27.93;22.10;;;19.00;99.90;;;;;;5061965;28;20211;-78
2022/08/28 06:48:58;;;;;;;27.23;23.63;;;19.00;99.90;;;;;;5046334;28;20279;-78
2022/08/28 06:51:26;;;;;;;22.13;19.77;;;19.10;99.90;;;;;;5060680;28;20201;-78
2022/08/28 06:53:53;;;;;;;25.53;23.23;;;19.20;99.90;;;;;;5064123;28;20793;-78
2022/08/28 06:56:21;;;;;;;27.03;24.40;;;19.30;99.90;;;;;;5045632;28;20199;-78
2022/08/28 06:58:49;;;;;;;26.57;24.17;;;19.30;99.90;;;;;;5046308;28;20201;-78
2022/08/28 07:01:21;;;;;;;27.60;25.00;;;19.30;99.90;;;;;;5033984;28;20199;-78
2022/08/28 07:03:49;;;;;;;24.87;22.67;;;19.30;99.90;;;;;;5060121;28;20214;-78
2022/08/28 07:06:17;;;;;;;22.00;19.33;;;19.40;99.90;;;;;;5045582;28;20338;-81
2022/08/28 07:08:45;;;;;;;19.40;17.50;;;19.40;99.90;;;;;;5058770;28;20207;-80
2022/08/28 07:11:14;;;;;;;24.13;21.63;;;19.50;99.90;;;;;;5031722;28;20252;-80
2022/08/28 07:13:41;;;;;;;20.47;18.33;;;19.60;99.90;;;;;;5034828;28;20642;-80
2022/08/28 07:16:09;;;;;;;26.33;23.73;;;19.60;99.90;;;;;;5030144;28;20252;-79
2022/08/28 07:18:36;;;;;;;22.73;19.67;;;19.80;99.90;;;;;;5063324;28;20198;-80
2022/08/28 07:21:03;;;;;;;24.07;21.90;;;19.90;99.90;;;;;;5050939;28;20198;-80
2022/08/28 07:23:32;;;;;;;24.43;22.23;;;20.10;99.90;;;;;;5043082;28;20260;-81
2022/08/28 07:26:03;;;;;;;21.23;18.97;;;20.20;99.90;;;;;;5067115;28;20703;-80
2022/08/28 07:28:30;;;;;;;24.80;22.30;;;20.30;99.90;;;;;;5033107;28;20695;-80
2022/08/28 07:30:58;;;;;;;24.67;22.57;;;20.40;99.90;;;;;;5055956;28;20686;-80
2022/08/28 07:33:25;;;;;;;28.87;25.93;;;20.60;99.90;;;;;;5054235;28;20309;-79
2022/08/28 07:35:52;;;;;;;25.60;23.30;;;20.80;99.90;;;;;;5041146;28;20595;-81
2022/08/28 07:38:19;;;;;;;21.23;19.03;;;20.80;99.90;;;;;;5069165;28;20228;-78
2022/08/28 07:40:47;;;;;;;22.27;20.07;;;20.90;99.90;;;;;;5047332;28;20190;-79
2022/08/28 07:46:10;;;;;;;23.73;21.50;;;20.80;99.90;;;;;;5005179;28;20202;-79
2022/08/28 07:48:39;;;;;;;22.33;20.07;;;20.90;99.90;;;;;;5037607;28;20196;-79
2022/08/28 07:51:07;;;;;;;23.27;21.17;;;20.80;99.90;;;;;;5058594;28;20193;-80
2022/08/28 07:53:36;;;;;;;24.60;22.40;;;20.80;99.90;;;;;;5048404;28;20235;-80
2022/08/28 07:56:03;;;;;;;23.57;21.47;;;20.80;99.90;;;;;;5046812;28;20223;-80
2022/08/28 07:58:31;;;;;;;22.93;20.93;;;20.90;99.90;;;;;;5035629;28;20207;-79
2022/08/28 08:01:00;;;;;;;21.13;19.13;;;21.00;99.90;;;;;;5049864;28;20252;-79
2022/08/28 08:03:29;;;;;;;18.73;16.93;;;21.20;99.90;;;;;;5040521;28;20223;-80
2022/08/28 08:05:58;;;;;;;20.77;18.87;;;21.20;99.90;;;;;;5049265;28;20222;-79
2022/08/28 08:08:26;;;;;;;17.53;15.90;;;21.30;99.90;;;;;;5062424;28;20294;-79
2022/08/28 08:10:59;;;;;;;16.97;15.33;;;21.30;99.90;;;;;;5031359;28;20204;-79
2022/08/28 08:13:26;;;;;;;14.93;13.53;;;21.30;99.90;;;;;;5049291;28;20334;-79
2022/08/28 08:15:54;;;;;;;20.77;18.97;;;21.30;99.90;;;;;;5037999;28;20246;-79
2022/08/28 08:18:21;;;;;;;20.97;18.70;;;21.20;99.90;;;;;;5044114;28;20237;-80
2022/08/28 08:20:48;;;;;;;23.17;21.17;;;21.00;99.90;;;;;;5047994;28;20199;-80
2022/08/28 08:23:15;;;;;;;18.13;15.40;;;21.00;99.90;;;;;;5028946;28;20757;-80
2022/08/28 08:25:42;;;;;;;21.60;17.33;;;20.90;99.90;;;;;;5031553;28;20719;-79
2022/08/28 08:28:08;;;;;;;16.37;14.60;;;21.00;99.90;;;;;;5049717;28;20195;-78
2022/08/28 08:30:35;;;;;;;14.13;12.83;;;21.00;99.90;;;;;;5031178;28;20211;-80
2022/08/28 08:33:03;;;;;;;18.43;15.97;;;21.20;99.90;;;;;;5038245;28;20215;-80
2022/08/28 08:35:30;;;;;;;15.73;13.60;;;21.30;99.90;;;;;;5047668;28;20200;-81
2022/08/28 08:37:57;;;;;;;19.50;17.27;;;21.60;99.90;;;;;;5036346;28;20269;-81
2022/08/28 08:40:24;;;;;;;15.07;13.67;;;21.80;99.90;;;;;;5043588;28;20200;-79
2022/08/28 08:42:54;;;;;;;19.77;17.93;;;22.30;99.90;;;;;;5045143;28;20226;-79
2022/08/28 08:45:25;;;;;;;20.30;18.37;;;22.50;99.90;;;;;;5038855;28;20628;-80
2022/08/28 08:47:55;;;;;;;21.27;19.17;;;22.40;99.90;;;;;;5055798;28;20748;-81
2022/08/28 08:50:26;;;;;;;16.47;14.77;;;22.40;99.90;;;;;;5036501;28;20679;-79
2022/08/28 08:53:09;;;;;;;16.77;15.17;;;22.40;99.90;;;;;;5037163;28;20256;-79
2022/08/28 08:55:42;;;;;;;16.03;13.23;;;22.30;99.90;;;;;;5056362;28;20286;-79
2022/08/28 08:58:13;;;;;;;15.57;13.93;;;22.10;99.90;;;;;;5049854;28;20605;-78
2022/08/28 09:00:52;;;;;;;18.70;17.10;;;22.10;99.90;;;;;;5025064;28;20206;-78
2022/08/28 09:03:23;;;;;;;19.83;17.87;;;22.10;99.90;;;;;;5035003;28;20247;-78
2022/08/28 09:05:55;;;;;;;18.53;16.63;;;22.10;99.90;;;;;;5049398;28;20256;-80
2022/08/28 09:08:29;;;;;;;16.57;14.97;;;22.10;99.90;;;;;;5030992;28;20264;-78
2022/08/28 09:11:03;;;;;;;21.47;15.03;;;22.40;99.90;;;;;;5065027;28;20194;-79
2022/08/28 09:13:40;;;;;;;18.13;16.53;;;22.70;99.90;;;;;;5048336;28;20237;-80
2022/08/28 09:16:20;;;;;;;17.73;16.10;;;23.30;99.90;;;;;;5029442;28;20191;-81
2022/08/28 09:18:49;;;;;;;16.00;14.60;;;23.40;99.90;;;;;;5035997;28;20230;-78
2022/08/28 09:21:28;;;;;;;17.03;15.43;;;23.90;99.90;;;;;;5031249;28;20213;-76
2022/08/28 09:23:55;;;;;;;16.47;14.97;;;24.30;99.90;;;;;;5027885;28;20711;-76
2022/08/28 09:26:24;;;;;;;12.33;10.77;;;24.90;99.90;;;;;;5064701;28;20241;-76
2022/08/28 09:29:02;;;;;;;15.60;14.20;;;25.10;99.90;;;;;;5062781;28;20627;-76
2022/08/28 09:31:32;;;;;;;14.83;13.63;;;24.90;99.90;;;;;;5056847;28;20194;-77
2022/08/28 09:34:18;;;;;;;13.73;12.53;;;24.90;99.90;;;;;;5052768;28;20230;-77
2022/08/28 09:36:47;;;;;;;14.10;12.90;;;24.80;99.90;;;;;;5063396;28;20206;-77
2022/08/28 09:39:18;;;;;;;16.83;15.40;;;24.40;99.90;;;;;;5063174;28;20200;-77
2022/08/28 09:44:55;;;;;;;15.77;14.47;;;24.00;99.90;;;;;;5064599;28;20328;-77
2022/08/28 09:47:40;;;;;;;13.83;12.53;;;23.70;99.90;;;;;;5054949;28;20233;-76
2022/08/28 09:50:21;;;;;;;13.17;11.90;;;23.40;99.90;;;;;;5058912;28;20194;-76
2022/08/28 09:52:50;;;;;;;14.03;12.80;;;23.20;99.90;;;;;;5057836;28;20276;-77
2022/08/28 09:55:24;;;;;;;14.90;13.60;;;23.10;99.90;;;;;;5065929;28;20182;-77
2022/08/28 09:57:53;;;;;;;18.20;16.70;;;22.90;99.90;;;;;;5045975;28;20249;-76
2022/08/28 10:00:21;;;;;;;15.50;14.10;;;22.70;99.90;;;;;;5046053;28;20191;-77
2022/08/28 10:02:53;;;;;;;15.43;14.13;;;22.70;99.90;;;;;;5062982;28;20222;-76
2022/08/28 10:05:32;;;;;;;10.50;9.03;;;22.60;99.90;;;;;;5055900;28;20221;-77
2022/08/28 10:08:06;;;;;;;12.33;11.23;;;22.60;99.90;;;;;;5063512;28;20198;-76
2022/08/28 10:10:41;;;;;;;13.40;12.10;;;22.70;99.90;;;;;;5062379;28;20256;-77
2022/08/28 10:13:14;;;;;;;13.93;12.87;;;23.00;99.90;;;;;;5065903;28;20214;-76
2022/08/28 10:15:56;;;;;;;14.23;13.00;;;23.20;99.90;;;;;;5041214;28;20194;-77
2022/08/28 10:18:36;;;;;;;10.00;8.30;;;23.20;99.90;;;;;;5054087;28;20243;-76
2022/08/28 10:21:13;;;;;;;10.77;8.53;;;23.30;99.90;;;;;;5050150;28;20207;-77
2022/08/28 10:23:57;;;;;;;9.53;8.53;;;23.60;99.90;;;;;;5051437;28;20226;-77
2022/08/28 10:26:33;;;;;;;10.60;7.47;;;23.60;99.90;;;;;;5057042;28;20253;-77
2022/08/28 10:29:10;;;;;;;8.17;7.40;;;23.80;99.90;;;;;;5041986;28;20210;-76
2022/08/28 10:31:46;;;;;;;11.67;10.73;;;24.00;99.90;;;;;;5059625;28;20261;-77
2022/08/28 10:34:32;;;;;;;9.27;7.87;;;24.00;99.90;;;;;;5039381;28;20198;-77
2022/08/28 10:37:09;;;;;;;10.00;9.10;;;24.00;99.90;;;;;;5046326;28;20203;-76
2022/08/28 10:39:47;;;;;;;8.80;7.23;;;24.30;99.90;;;;;;5061773;28;20218;-77
2022/08/28 10:42:25;;;;;;;12.87;11.77;;;24.90;99.90;;;;;;5036361;28;20218;-77
2022/08/28 10:44:59;;;;;;;11.00;9.90;;;25.10;99.90;;;;;;5060807;28;20237;-77
2022/08/28 10:47:28;;;;;;;12.13;11.13;;;25.10;99.90;;;;;;5044783;28;20261;-77
2022/08/28 10:50:00;;;;;;;11.80;10.70;;;25.10;99.90;;;;;;5063074;28;20667;-77
2022/08/28 10:52:33;;;;;;;11.37;10.57;;;24.90;99.90;;;;;;5040892;28;20235;-76
2022/08/28 10:55:05;;;;;;;11.90;10.90;;;25.00;99.90;;;;;;5064994;28;20194;-77
2022/08/28 10:57:36;;;;;;;12.20;10.90;;;25.20;99.90;;;;;;5043652;28;20203;-77
2022/08/28 11:00:09;;;;;;;12.47;11.30;;;25.50;99.90;;;;;;5072491;28;20198;-76
2022/08/28 11:02:46;;;;;;;13.10;11.90;;;25.50;99.90;;;;;;5095685;27;1220866;-76
2022/08/28 11:05:14;;;;;;;12.00;11.10;;;25.00;99.90;;;;;;5118981;28;20250;-77
2022/08/28 11:07:45;;;;;;;12.60;11.60;;;24.90;99.90;;;;;;5118726;28;20196;-76
2022/08/28 11:10:43;;;;;;;13.27;12.17;;;25.00;99.90;;;;;;5096832;28;20631;-77
2022/08/28 11:13:11;;;;;;;13.00;12.00;;;24.90;99.90;;;;;;5100149;28;20228;-77
2022/08/28 11:15:52;;;;;;;11.03;10.13;;;24.90;99.90;;;;;;5101958;28;20543;-77
2022/08/28 11:18:51;;;;;;;12.57;11.63;;;25.20;99.90;;;;;;5090612;28;20905;-77
2022/08/28 11:21:24;;;;;;;12.57;11.43;;;25.40;99.90;;;;;;5108054;28;20197;-77
2022/08/28 11:23:59;;;;;;;9.30;8.40;;;25.30;99.90;;;;;;5102715;28;20216;-77
2022/08/28 11:26:33;;;;;;;9.40;6.60;;;25.40;99.90;;;;;;5120467;28;20200;-78
2022/08/28 11:29:01;;;;;;;8.50;7.60;;;25.50;99.90;;;;;;5097851;28;20604;-77
2022/08/28 11:31:33;;;;;;;7.97;7.17;;;25.70;99.90;;;;;;5096566;28;20193;-76
2022/08/28 11:34:01;;;;;;;12.37;11.27;;;25.30;99.90;;;;;;5117707;28;20210;-78
2022/08/28 11:37:01;;;;;;;12.87;11.77;;;25.20;99.90;;;;;;5114405;28;20201;-77
2022/08/28 11:39:28;;;;;;;12.77;11.77;;;25.30;99.90;;;;;;5113908;28;20188;-79
2022/08/28 11:42:38;;;;;;;8.93;6.90;;;25.10;99.90;;;;;;5103206;28;20707;-80
2022/08/28 11:45:06;;;;;;;11.53;10.53;;;25.00;99.90;;;;;;5097476;28;20204;-81
2022/08/28 11:47:55;;;;;;;10.00;9.00;;;25.00;99.90;;;;;;5123719;28;20193;-80
2022/08/28 11:50:30;;;;;;;12.93;11.83;;;24.80;99.90;;;;;;5114429;28;20223;-80
2022/08/28 11:53:34;;;;;;;12.23;11.03;;;24.80;99.90;;;;;;5117858;28;20220;-81
2022/08/28 11:56:47;;;;;;;9.13;8.23;;;24.80;99.90;;;;;;5097975;28;20205;-80
2022/08/28 11:59:31;;;;;;;7.60;6.90;;;25.10;99.90;;;;;;5097796;28;20193;-81
2022/08/28 12:02:37;;;;;;;12.80;8.70;;;25.00;99.90;;;;;;5121375;27;20224;-80
2022/08/28 12:05:08;;;;;;;13.13;12.13;;;24.80;99.90;;;;;;5104114;28;20638;-80
2022/08/28 12:07:37;;;;;;;12.93;11.73;;;24.50;99.90;;;;;;5101252;28;20209;-80
2022/08/28 12:10:47;;;;;;;11.67;10.50;;;24.30;99.90;;;;;;5110146;28;20262;-80
2022/08/28 12:13:45;;;;;;;12.23;11.03;;;24.20;99.90;;;;;;5081238;28;20324;-78
2022/08/28 12:16:12;;;;;;;11.07;10.17;;;24.10;99.90;;;;;;5090979;28;20193;-78
2022/08/28 12:19:02;;;;;;;11.60;10.70;;;24.30;99.90;;;;;;5089400;28;20208;-81
2022/08/28 12:21:35;;;;;;;11.97;10.97;;;24.30;99.90;;;;;;5100181;28;20201;-81
2022/08/28 12:24:11;;;;;;;11.50;10.60;;;24.40;99.90;;;;;;5089795;28;20221;-80
2022/08/28 12:26:44;;;;;;;11.10;10.30;;;24.50;99.90;;;;;;5106539;28;20247;-78
2022/08/28 12:29:26;;;;;;;12.30;11.40;;;24.60;99.90;;;;;;5095401;28;20194;-79
2022/08/28 12:32:18;;;;;;;9.87;8.33;;;24.70;99.90;;;;;;5082681;28;20613;-79
2022/08/28 12:35:03;;;;;;;11.57;10.67;;;24.60;99.90;;;;;;5074490;28;20617;-80
2022/08/28 12:37:38;;;;;;;11.27;9.60;;;24.70;99.90;;;;;;5073916;28;20198;-80
2022/08/28 12:40:15;;;;;;;8.40;7.10;;;24.80;99.90;;;;;;5062707;28;20201;-81
2022/08/28 12:42:48;;;;;;;9.97;8.83;;;24.70;99.90;;;;;;5066347;28;20300;-81
2022/08/28 12:45:20;;;;;;;6.77;5.93;;;24.80;99.90;;;;;;5065657;28;20208;-80
2022/08/28 12:47:49;;;;;;;8.53;7.67;;;24.70;99.90;;;;;;5080161;28;20194;-80
2022/08/28 12:50:29;;;;;;;9.20;7.80;;;24.50;99.90;;;;;;5085424;28;20202;-80
2022/08/28 12:52:59;;;;;;;8.90;7.43;;;24.40;99.90;;;;;;5098785;28;20236;-80
2022/08/28 12:55:27;;;;;;;7.93;7.23;;;24.40;99.90;;;;;;5089213;28;20265;-81